sensor_id;sensor_type;location;lat;lon;timestamp;temperature;humidity
53752;DHT22;41095;53.090;6.692;2022-08-21T00:01:19;15.80;99.90
53752;DHT22;41095;53.090;6.692;2022-08-21T00:03:46;15.80;99.90
53752;DHT22;41095;53.090;6.692;2022-08-21T00:06:11;15.80;99.90
53752;DHT22;41095;53.090;6.692;2022-08-21T00:08:37;15.80;99.90
53752;DHT22;41095;53.090;6.692;2022-08-21T00:11:04;15.80;99.90
53752;DHT22;41095;53.090;6.692;2022-08-21T00:13:30;15.70;99.90
53752;DHT22;41095;53.090;6.692;2022-08-21T00:15:58;15.40;99.90
53752;DHT22;41095;53.090;6.692;2022-08-21T00:18:24;15.70;99.90
53752;DHT22;41095;53.090;6.692;2022-08-21T00:20:50;15.60;99.90
53752;DHT22;41095;53.090;6.692;2022-08-21T00:23:16;15.50;99.90
53752;DHT22;41095;53.090;6.692;2022-08-21T00:25:43;15.40;99.90
53752;DHT22;41095;53.090;6.692;2022-08-21T00:28:11;15.50;99.90
53752;DHT22;41095;53.090;6.692;2022-08-21T00:30:37;15.40;99.90
53752;DHT22;41095;53.090;6.692;2022-08-21T00:33:04;15.40;99.90
53752;DHT22;41095;53.090;6.692;2022-08-21T00:35:33;15.40;99.90
53752;DHT22;41095;53.090;6.692;2022-08-21T00:37:59;15.40;99.90
53752;DHT22;41095;53.090;6.692;2022-08-21T00:40:33;15.30;99.90
53752;DHT22;41095;53.090;6.692;2022-08-21T00:43:00;15.30;99.90
53752;DHT22;41095;53.090;6.692;2022-08-21T00:45:26;15.30;99.90
53752;DHT22;41095;53.090;6.692;2022-08-21T00:47:53;15.20;99.90
53752;DHT22;41095;53.090;6.692;2022-08-21T00:50:20;15.10;99.90
53752;DHT22;41095;53.090;6.692;2022-08-21T00:52:46;15.10;99.90
53752;DHT22;41095;53.090;6.692;2022-08-21T00:55:13;15.00;99.90
53752;DHT22;41095;53.090;6.692;2022-08-21T00:57:44;15.00;99.90
53752;DHT22;41095;53.090;6.692;2022-08-21T01:00:15;14.90;99.90
53752;DHT22;41095;53.090;6.692;2022-08-21T01:02:42;14.90;99.90
53752;DHT22;41095;53.090;6.692;2022-08-21T01:05:09;14.90;99.90
53752;DHT22;41095;53.090;6.692;2022-08-21T01:07:35;14.80;99.90
53752;DHT22;41095;53.090;6.692;2022-08-21T01:10:01;14.80;99.90
53752;DHT22;41095;53.090;6.692;2022-08-21T01:12:27;14.80;99.90
53752;DHT22;41095;53.090;6.692;2022-08-21T01:14:53;14.80;99.90
53752;DHT22;41095;53.090;6.692;2022-08-21T01:17:20;14.80;99.90
53752;DHT22;41095;53.090;6.692;2022-08-21T01:19:46;14.70;99.90
53752;DHT22;41095;53.090;6.692;2022-08-21T01:22:12;14.80;99.90
53752;DHT22;41095;53.090;6.692;2022-08-21T01:24:38;14.70;99.90
53752;DHT22;41095;53.090;6.692;2022-08-21T01:27:05;14.70;99.90
53752;DHT22;41095;53.090;6.692;2022-08-21T01:29:41;14.60;99.90
53752;DHT22;41095;53.090;6.692;2022-08-21T01:32:12;14.60;99.90
53752;DHT22;41095;53.090;6.692;2022-08-21T01:34:41;14.60;99.90
53752;DHT22;41095;53.090;6.692;2022-08-21T01:37:07;14.50;99.90
53752;DHT22;41095;53.090;6.692;2022-08-21T01:39:34;14.50;99.90
53752;DHT22;41095;53.090;6.692;2022-08-21T01:42:00;14.50;99.90
53752;DHT22;41095;53.090;6.692;2022-08-21T01:44:26;14.50;99.90
53752;DHT22;41095;53.090;6.692;2022-08-21T01:46:52;14.50;99.90
53752;DHT22;41095;53.090;6.692;2022-08-21T01:49:19;14.50;99.90
53752;DHT22;41095;53.090;6.692;2022-08-21T01:51:45;14.40;99.90
53752;DHT22;41095;53.090;6.692;2022-08-21T01:54:11;14.40;99.90
53752;DHT22;41095;53.090;6.692;2022-08-21T01:56:43;14.40;99.90
53752;DHT22;41095;53.090;6.692;2022-08-21T01:59:09;14.30;99.90
53752;DHT22;41095;53.090;6.692;2022-08-21T02:01:35;14.30;99.90
53752;DHT22;41095;53.090;6.692;2022-08-21T02:04:02;14.20;99.90
53752;DHT22;41095;53.090;6.692;2022-08-21T02:06:28;14.20;99.90
53752;DHT22;41095;53.090;6.692;2022-08-21T02:08:54;14.10;99.90
53752;DHT22;41095;53.090;6.692;2022-08-21T02:11:20;14.10;99.90
53752;DHT22;41095;53.090;6.692;2022-08-21T02:13:46;14.10;99.90
53752;DHT22;41095;53.090;6.692;2022-08-21T02:16:12;14.10;99.90
53752;DHT22;41095;53.090;6.692;2022-08-21T02:18:38;14.10;99.90
53752;DHT22;41095;53.090;6.692;2022-08-21T02:21:05;14.10;99.90
53752;DHT22;41095;53.090;6.692;2022-08-21T02:23:31;14.10;99.90
53752;DHT22;41095;53.090;6.692;2022-08-21T02:25:59;14.10;99.90
53752;DHT22;41095;53.090;6.692;2022-08-21T02:28:25;14.00;99.90
53752;DHT22;41095;53.090;6.692;2022-08-21T02:30:51;14.10;99.90
53752;DHT22;41095;53.090;6.692;2022-08-21T02:33:17;14.10;99.90
53752;DHT22;41095;53.090;6.692;2022-08-21T02:35:45;14.00;99.90
53752;DHT22;41095;53.090;6.692;2022-08-21T02:38:14;14.00;99.90
53752;DHT22;41095;53.090;6.692;2022-08-21T02:40:45;14.00;99.90
53752;DHT22;41095;53.090;6.692;2022-08-21T02:43:11;14.00;99.90
53752;DHT22;41095;53.090;6.692;2022-08-21T02:45:38;14.00;99.90
53752;DHT22;41095;53.090;6.692;2022-08-21T02:48:08;13.90;99.90
53752;DHT22;41095;53.090;6.692;2022-08-21T02:50:46;14.00;99.90
53752;DHT22;41095;53.090;6.692;2022-08-21T02:53:14;14.00;99.90
53752;DHT22;41095;53.090;6.692;2022-08-21T02:55:46;13.90;99.90
53752;DHT22;41095;53.090;6.692;2022-08-21T02:58:14;14.00;99.90
53752;DHT22;41095;53.090;6.692;2022-08-21T03:00:40;13.90;99.90
53752;DHT22;41095;53.090;6.692;2022-08-21T03:03:06;13.90;99.90
53752;DHT22;41095;53.090;6.692;2022-08-21T03:05:34;13.90;99.90
53752;DHT22;41095;53.090;6.692;2022-08-21T03:08:03;13.90;99.90
53752;DHT22;41095;53.090;6.692;2022-08-21T03:10:29;13.90;99.90
53752;DHT22;41095;53.090;6.692;2022-08-21T03:12:56;13.90;99.90
53752;DHT22;41095;53.090;6.692;2022-08-21T03:15:23;13.90;99.90
53752;DHT22;41095;53.090;6.692;2022-08-21T03:17:50;13.90;99.90
53752;DHT22;41095;53.090;6.692;2022-08-21T03:20:18;13.90;99.90
53752;DHT22;41095;53.090;6.692;2022-08-21T03:22:44;13.90;99.90
53752;DHT22;41095;53.090;6.692;2022-08-21T03:25:09;13.90;99.90
53752;DHT22;41095;53.090;6.692;2022-08-21T03:27:36;13.90;99.90
53752;DHT22;41095;53.090;6.692;2022-08-21T03:30:04;13.80;99.90
53752;DHT22;41095;53.090;6.692;2022-08-21T03:32:30;13.80;99.90
53752;DHT22;41095;53.090;6.692;2022-08-21T03:34:57;13.80;99.90
53752;DHT22;41095;53.090;6.692;2022-08-21T03:37:23;13.80;99.90
53752;DHT22;41095;53.090;6.692;2022-08-21T03:39:50;13.80;99.90
53752;DHT22;41095;53.090;6.692;2022-08-21T03:42:16;13.80;99.90
53752;DHT22;41095;53.090;6.692;2022-08-21T03:44:42;13.80;99.90
53752;DHT22;41095;53.090;6.692;2022-08-21T03:47:08;13.80;99.90
53752;DHT22;41095;53.090;6.692;2022-08-21T03:49:35;13.80;99.90
53752;DHT22;41095;53.090;6.692;2022-08-21T03:52:02;13.80;99.90
53752;DHT22;41095;53.090;6.692;2022-08-21T03:54:28;13.70;99.90
53752;DHT22;41095;53.090;6.692;2022-08-21T03:56:54;13.70;99.90
53752;DHT22;41095;53.090;6.692;2022-08-21T03:59:20;13.70;99.90
53752;DHT22;41095;53.090;6.692;2022-08-21T04:01:58;13.70;99.90
53752;DHT22;41095;53.090;6.692;2022-08-21T04:04:25;13.70;99.90
53752;DHT22;41095;53.090;6.692;2022-08-21T04:06:51;13.70;99.90
53752;DHT22;41095;53.090;6.692;2022-08-21T04:09:18;13.60;99.90
53752;DHT22;41095;53.090;6.692;2022-08-21T04:11:44;13.60;99.90
53752;DHT22;41095;53.090;6.692;2022-08-21T04:14:11;13.60;99.90
53752;DHT22;41095;53.090;6.692;2022-08-21T04:16:37;13.60;99.90
53752;DHT22;41095;53.090;6.692;2022-08-21T04:19:03;13.60;99.90
53752;DHT22;41095;53.090;6.692;2022-08-21T04:21:30;13.60;99.90
53752;DHT22;41095;53.090;6.692;2022-08-21T04:23:56;13.60;99.90
53752;DHT22;41095;53.090;6.692;2022-08-21T04:26:22;13.70;99.90
53752;DHT22;41095;53.090;6.692;2022-08-21T04:28:47;13.60;99.90
53752;DHT22;41095;53.090;6.692;2022-08-21T04:31:13;13.60;99.90
53752;DHT22;41095;53.090;6.692;2022-08-21T04:33:39;13.60;99.90
53752;DHT22;41095;53.090;6.692;2022-08-21T04:36:05;13.60;99.90
53752;DHT22;41095;53.090;6.692;2022-08-21T04:38:32;13.60;99.90
53752;DHT22;41095;53.090;6.692;2022-08-21T04:40:58;13.60;99.90
53752;DHT22;41095;53.090;6.692;2022-08-21T04:43:24;13.60;99.90
53752;DHT22;41095;53.090;6.692;2022-08-21T04:45:51;13.70;99.90
53752;DHT22;41095;53.090;6.692;2022-08-21T04:48:19;13.70;99.90
53752;DHT22;41095;53.090;6.692;2022-08-21T04:56:15;13.70;99.90
53752;DHT22;41095;53.090;6.692;2022-08-21T04:58:42;13.70;99.90
53752;DHT22;41095;53.090;6.692;2022-08-21T05:01:12;13.70;99.90
53752;DHT22;41095;53.090;6.692;2022-08-21T05:03:39;13.80;99.90
53752;DHT22;41095;53.090;6.692;2022-08-21T05:06:09;13.80;99.90
53752;DHT22;41095;53.090;6.692;2022-08-21T05:08:36;13.80;99.90
53752;DHT22;41095;53.090;6.692;2022-08-21T05:11:04;13.90;99.90
53752;DHT22;41095;53.090;6.692;2022-08-21T05:13:29;13.90;99.90
53752;DHT22;41095;53.090;6.692;2022-08-21T05:15:55;13.90;99.90
53752;DHT22;41095;53.090;6.692;2022-08-21T05:18:21;14.20;99.90
53752;DHT22;41095;53.090;6.692;2022-08-21T05:20:47;14.00;99.90
53752;DHT22;41095;53.090;6.692;2022-08-21T05:23:13;14.10;99.90
53752;DHT22;41095;53.090;6.692;2022-08-21T05:25:40;14.10;99.90
53752;DHT22;41095;53.090;6.692;2022-08-21T05:28:06;14.10;99.90
53752;DHT22;41095;53.090;6.692;2022-08-21T05:30:32;14.20;99.90
53752;DHT22;41095;53.090;6.692;2022-08-21T05:33:00;14.20;99.90
53752;DHT22;41095;53.090;6.692;2022-08-21T05:35:26;14.30;99.90
53752;DHT22;41095;53.090;6.692;2022-08-21T05:37:52;14.30;99.90
53752;DHT22;41095;53.090;6.692;2022-08-21T05:40:18;14.40;99.90
53752;DHT22;41095;53.090;6.692;2022-08-21T05:42:44;14.50;99.90
53752;DHT22;41095;53.090;6.692;2022-08-21T05:45:10;14.60;99.90
53752;DHT22;41095;53.090;6.692;2022-08-21T05:47:35;14.60;99.90
53752;DHT22;41095;53.090;6.692;2022-08-21T05:50:02;14.70;99.90
53752;DHT22;41095;53.090;6.692;2022-08-21T05:52:27;14.80;99.90
53752;DHT22;41095;53.090;6.692;2022-08-21T05:54:53;14.90;99.90
53752;DHT22;41095;53.090;6.692;2022-08-21T05:57:20;14.90;99.90
53752;DHT22;41095;53.090;6.692;2022-08-21T05:59:46;15.00;99.90
53752;DHT22;41095;53.090;6.692;2022-08-21T06:02:11;15.10;99.90
53752;DHT22;41095;53.090;6.692;2022-08-21T06:04:38;15.20;99.90
53752;DHT22;41095;53.090;6.692;2022-08-21T06:07:04;15.30;99.90
53752;DHT22;41095;53.090;6.692;2022-08-21T06:09:30;15.40;99.90
53752;DHT22;41095;53.090;6.692;2022-08-21T06:11:56;15.40;99.90
53752;DHT22;41095;53.090;6.692;2022-08-21T06:14:22;15.50;99.90
53752;DHT22;41095;53.090;6.692;2022-08-21T06:16:47;15.60;99.90
53752;DHT22;41095;53.090;6.692;2022-08-21T06:19:13;15.80;99.90
53752;DHT22;41095;53.090;6.692;2022-08-21T06:21:39;15.80;99.90
53752;DHT22;41095;53.090;6.692;2022-08-21T06:24:05;15.90;99.90
53752;DHT22;41095;53.090;6.692;2022-08-21T06:26:32;16.00;99.90
53752;DHT22;41095;53.090;6.692;2022-08-21T06:28:58;16.10;99.90
53752;DHT22;41095;53.090;6.692;2022-08-21T06:31:26;16.20;99.90
53752;DHT22;41095;53.090;6.692;2022-08-21T06:33:52;16.40;99.90
53752;DHT22;41095;53.090;6.692;2022-08-21T06:36:18;16.50;99.90
53752;DHT22;41095;53.090;6.692;2022-08-21T06:38:45;16.60;99.90
53752;DHT22;41095;53.090;6.692;2022-08-21T06:41:11;16.70;99.90
53752;DHT22;41095;53.090;6.692;2022-08-21T06:43:37;16.90;99.90
53752;DHT22;41095;53.090;6.692;2022-08-21T06:46:03;17.00;99.90
53752;DHT22;41095;53.090;6.692;2022-08-21T06:48:29;17.10;99.90
53752;DHT22;41095;53.090;6.692;2022-08-21T06:50:58;17.20;99.90
53752;DHT22;41095;53.090;6.692;2022-08-21T06:53:24;17.40;99.90
53752;DHT22;41095;53.090;6.692;2022-08-21T06:55:50;17.50;99.90
53752;DHT22;41095;53.090;6.692;2022-08-21T06:58:16;17.70;99.90
53752;DHT22;41095;53.090;6.692;2022-08-21T07:00:45;17.80;99.90
53752;DHT22;41095;53.090;6.692;2022-08-21T07:03:29;18.00;99.90
53752;DHT22;41095;53.090;6.692;2022-08-21T07:05:55;18.20;99.90
53752;DHT22;41095;53.090;6.692;2022-08-21T07:08:23;19.10;99.90
53752;DHT22;41095;53.090;6.692;2022-08-21T07:10:49;20.60;99.90
53752;DHT22;41095;53.090;6.692;2022-08-21T07:13:15;21.90;99.90
53752;DHT22;41095;53.090;6.692;2022-08-21T07:15:41;23.10;99.90
53752;DHT22;41095;53.090;6.692;2022-08-21T07:18:07;24.40;99.90
53752;DHT22;41095;53.090;6.692;2022-08-21T07:20:33;25.10;99.90
53752;DHT22;41095;53.090;6.692;2022-08-21T07:23:17;25.70;99.90
53752;DHT22;41095;53.090;6.692;2022-08-21T07:25:47;25.90;99.20
53752;DHT22;41095;53.090;6.692;2022-08-21T07:28:12;26.50;97.50
53752;DHT22;41095;53.090;6.692;2022-08-21T07:30:38;27.10;98.90
53752;DHT22;41095;53.090;6.692;2022-08-21T07:33:03;27.30;95.40
53752;DHT22;41095;53.090;6.692;2022-08-21T07:35:29;27.40;96.40
53752;DHT22;41095;53.090;6.692;2022-08-21T07:37:56;27.20;95.40
53752;DHT22;41095;53.090;6.692;2022-08-21T07:40:22;27.40;94.50
53752;DHT22;41095;53.090;6.692;2022-08-21T07:42:48;27.80;93.10
53752;DHT22;41095;53.090;6.692;2022-08-21T07:45:19;27.60;93.20
53752;DHT22;41095;53.090;6.692;2022-08-21T07:47:45;27.90;93.10
53752;DHT22;41095;53.090;6.692;2022-08-21T07:50:11;27.70;91.50
53752;DHT22;41095;53.090;6.692;2022-08-21T07:52:37;27.50;91.80
53752;DHT22;41095;53.090;6.692;2022-08-21T07:55:04;27.70;91.60
53752;DHT22;41095;53.090;6.692;2022-08-21T07:57:30;27.90;91.30
53752;DHT22;41095;53.090;6.692;2022-08-21T07:59:56;28.40;91.00
53752;DHT22;41095;53.090;6.692;2022-08-21T08:02:23;28.20;87.80
53752;DHT22;41095;53.090;6.692;2022-08-21T08:04:50;28.80;89.30
53752;DHT22;41095;53.090;6.692;2022-08-21T08:07:16;29.00;89.40
53752;DHT22;41095;53.090;6.692;2022-08-21T08:09:42;28.90;87.70
53752;DHT22;41095;53.090;6.692;2022-08-21T08:12:07;29.00;86.30
53752;DHT22;41095;53.090;6.692;2022-08-21T08:14:33;28.60;87.40
53752;DHT22;41095;53.090;6.692;2022-08-21T08:16:59;28.10;81.80
53752;DHT22;41095;53.090;6.692;2022-08-21T08:19:24;28.60;86.70
53752;DHT22;41095;53.090;6.692;2022-08-21T08:21:50;28.80;85.90
53752;DHT22;41095;53.090;6.692;2022-08-21T08:24:16;29.20;85.30
53752;DHT22;41095;53.090;6.692;2022-08-21T08:26:41;29.00;83.80
53752;DHT22;41095;53.090;6.692;2022-08-21T08:29:07;28.60;83.00
53752;DHT22;41095;53.090;6.692;2022-08-21T08:31:33;28.90;83.80
53752;DHT22;41095;53.090;6.692;2022-08-21T08:33:59;29.40;84.20
53752;DHT22;41095;53.090;6.692;2022-08-21T08:36:34;29.50;83.90
53752;DHT22;41095;53.090;6.692;2022-08-21T08:39:00;29.60;79.30
53752;DHT22;41095;53.090;6.692;2022-08-21T08:41:26;30.10;81.30
53752;DHT22;41095;53.090;6.692;2022-08-21T08:43:54;30.50;81.30
53752;DHT22;41095;53.090;6.692;2022-08-21T08:46:41;30.20;80.30
53752;DHT22;41095;53.090;6.692;2022-08-21T08:49:17;29.80;76.80
53752;DHT22;41095;53.090;6.692;2022-08-21T08:52:07;30.10;79.80
53752;DHT22;41095;53.090;6.692;2022-08-21T08:55:06;30.40;77.20
53752;DHT22;41095;53.090;6.692;2022-08-21T08:57:30;30.70;78.30
53752;DHT22;41095;53.090;6.692;2022-08-21T09:00:03;30.20;79.40
53752;DHT22;41095;53.090;6.692;2022-08-21T09:02:29;29.90;78.40
53752;DHT22;41095;53.090;6.692;2022-08-21T09:04:56;30.10;77.40
53752;DHT22;41095;53.090;6.692;2022-08-21T09:07:44;29.90;77.50
53752;DHT22;41095;53.090;6.692;2022-08-21T09:15:41;30.60;78.40
53752;DHT22;41095;53.090;6.692;2022-08-21T09:23:46;30.30;75.10
53752;DHT22;41095;53.090;6.692;2022-08-21T09:26:17;30.40;76.00
53752;DHT22;41095;53.090;6.692;2022-08-21T09:28:43;30.50;76.20
53752;DHT22;41095;53.090;6.692;2022-08-21T09:31:31;30.50;77.30
53752;DHT22;41095;53.090;6.692;2022-08-21T09:34:23;30.60;75.90
53752;DHT22;41095;53.090;6.692;2022-08-21T09:36:50;30.80;75.90
53752;DHT22;41095;53.090;6.692;2022-08-21T09:39:31;30.90;74.40
53752;DHT22;41095;53.090;6.692;2022-08-21T09:42:01;31.10;74.00
53752;DHT22;41095;53.090;6.692;2022-08-21T09:44:30;31.20;75.20
53752;DHT22;41095;53.090;6.692;2022-08-21T09:46:57;31.20;76.00
53752;DHT22;41095;53.090;6.692;2022-08-21T09:49:36;31.00;77.10
53752;DHT22;41095;53.090;6.692;2022-08-21T09:52:05;30.60;74.80
53752;DHT22;41095;53.090;6.692;2022-08-21T09:54:39;30.50;77.10
53752;DHT22;41095;53.090;6.692;2022-08-21T09:59:53;30.30;75.90
53752;DHT22;41095;53.090;6.692;2022-08-21T10:02:31;30.40;76.60
53752;DHT22;41095;53.090;6.692;2022-08-21T10:05:02;30.60;76.60
53752;DHT22;41095;53.090;6.692;2022-08-21T10:07:29;30.90;75.60
53752;DHT22;41095;53.090;6.692;2022-08-21T10:10:28;30.30;75.40
53752;DHT22;41095;53.090;6.692;2022-08-21T10:13:07;30.30;76.70
53752;DHT22;41095;53.090;6.692;2022-08-21T10:19:00;30.20;76.50
53752;DHT22;41095;53.090;6.692;2022-08-21T10:21:29;30.10;77.30
53752;DHT22;41095;53.090;6.692;2022-08-21T10:24:10;29.60;78.00
53752;DHT22;41095;53.090;6.692;2022-08-21T10:29:47;27.60;80.00
53752;DHT22;41095;53.090;6.692;2022-08-21T10:35:31;26.50;82.10
53752;DHT22;41095;53.090;6.692;2022-08-21T10:44:30;26.10;83.90
53752;DHT22;41095;53.090;6.692;2022-08-21T10:47:06;27.10;83.90
53752;DHT22;41095;53.090;6.692;2022-08-21T10:55:18;28.80;79.70
53752;DHT22;41095;53.090;6.692;2022-08-21T10:57:52;28.40;80.00
53752;DHT22;41095;53.090;6.692;2022-08-21T11:00:22;28.00;79.90
53752;DHT22;41095;53.090;6.692;2022-08-21T11:02:57;27.80;80.30
53752;DHT22;41095;53.090;6.692;2022-08-21T11:08:53;27.30;80.10
53752;DHT22;41095;53.090;6.692;2022-08-21T11:11:56;27.10;79.20
53752;DHT22;41095;53.090;6.692;2022-08-21T11:13:57;27.00;80.70
53752;DHT22;41095;53.090;6.692;2022-08-21T11:16:37;27.30;79.90
53752;DHT22;41095;53.090;6.692;2022-08-21T11:22:21;27.30;79.40
53752;DHT22;41095;53.090;6.692;2022-08-21T11:27:45;26.80;79.80
53752;DHT22;41095;53.090;6.692;2022-08-21T11:30:13;26.50;79.10
53752;DHT22;41095;53.090;6.692;2022-08-21T11:40:52;25.80;81.80
53752;DHT22;41095;53.090;6.692;2022-08-21T11:43:50;25.70;83.70
53752;DHT22;41095;53.090;6.692;2022-08-21T11:46:29;25.60;83.90
53752;DHT22;41095;53.090;6.692;2022-08-21T11:49:21;25.40;83.90
53752;DHT22;41095;53.090;6.692;2022-08-21T11:57:21;24.80;84.30
53752;DHT22;41095;53.090;6.692;2022-08-21T12:02:50;24.40;88.10
53752;DHT22;41095;53.090;6.692;2022-08-21T12:05:32;24.40;88.50
53752;DHT22;41095;53.090;6.692;2022-08-21T12:08:03;24.50;90.20
53752;DHT22;41095;53.090;6.692;2022-08-21T12:11:22;24.50;89.00
53752;DHT22;41095;53.090;6.692;2022-08-21T12:13:27;24.60;89.80
53752;DHT22;41095;53.090;6.692;2022-08-21T12:16:08;24.60;88.60
53752;DHT22;41095;53.090;6.692;2022-08-21T12:18:34;24.70;89.60
53752;DHT22;41095;53.090;6.692;2022-08-21T12:21:32;24.80;89.40
53752;DHT22;41095;53.090;6.692;2022-08-21T12:24:20;24.90;90.30
53752;DHT22;41095;53.090;6.692;2022-08-21T12:26:59;24.90;90.50
53752;DHT22;41095;53.090;6.692;2022-08-21T12:31:58;25.10;89.50
53752;DHT22;41095;53.090;6.692;2022-08-21T12:34:48;25.30;89.20
53752;DHT22;41095;53.090;6.692;2022-08-21T12:39:53;25.50;88.80
53752;DHT22;41095;53.090;6.692;2022-08-21T12:42:31;25.50;88.10
53752;DHT22;41095;53.090;6.692;2022-08-21T12:45:03;25.40;87.60
53752;DHT22;41095;53.090;6.692;2022-08-21T12:53:00;25.30;87.50
53752;DHT22;41095;53.090;6.692;2022-08-21T12:55:32;25.10;87.60
53752;DHT22;41095;53.090;6.692;2022-08-21T12:57:59;25.20;87.70
53752;DHT22;41095;53.090;6.692;2022-08-21T13:00:26;25.20;87.70
53752;DHT22;41095;53.090;6.692;2022-08-21T13:02:53;25.20;86.90
53752;DHT22;41095;53.090;6.692;2022-08-21T13:05:35;25.20;87.30
53752;DHT22;41095;53.090;6.692;2022-08-21T13:08:09;25.20;87.40
53752;DHT22;41095;53.090;6.692;2022-08-21T13:10:36;25.10;85.80
53752;DHT22;41095;53.090;6.692;2022-08-21T13:13:10;25.10;86.60
53752;DHT22;41095;53.090;6.692;2022-08-21T13:15:39;25.10;87.40
53752;DHT22;41095;53.090;6.692;2022-08-21T13:18:06;25.10;87.60
53752;DHT22;41095;53.090;6.692;2022-08-21T13:20:35;25.10;87.90
53752;DHT22;41095;53.090;6.692;2022-08-21T13:23:07;25.00;88.10
53752;DHT22;41095;53.090;6.692;2022-08-21T13:25:41;24.90;88.80
53752;DHT22;41095;53.090;6.692;2022-08-21T13:28:10;24.80;88.40
53752;DHT22;41095;53.090;6.692;2022-08-21T13:30:43;24.80;88.80
53752;DHT22;41095;53.090;6.692;2022-08-21T13:33:13;24.70;89.50
53752;DHT22;41095;53.090;6.692;2022-08-21T13:36:00;24.70;89.80
53752;DHT22;41095;53.090;6.692;2022-08-21T13:38:30;24.60;90.40
53752;DHT22;41095;53.090;6.692;2022-08-21T13:40:59;24.50;90.20
53752;DHT22;41095;53.090;6.692;2022-08-21T13:43:30;24.40;90.00
53752;DHT22;41095;53.090;6.692;2022-08-21T13:45:56;24.30;90.00
53752;DHT22;41095;53.090;6.692;2022-08-21T13:48:26;24.20;89.90
53752;DHT22;41095;53.090;6.692;2022-08-21T13:50:54;24.20;90.50
53752;DHT22;41095;53.090;6.692;2022-08-21T13:55:52;24.20;90.10
53752;DHT22;41095;53.090;6.692;2022-08-21T13:58:33;24.30;89.70
53752;DHT22;41095;53.090;6.692;2022-08-21T14:03:50;24.80;89.00
53752;DHT22;41095;53.090;6.692;2022-08-21T14:06:26;25.00;88.50
53752;DHT22;41095;53.090;6.692;2022-08-21T14:08:59;25.20;87.40
53752;DHT22;41095;53.090;6.692;2022-08-21T14:11:27;25.40;86.50
53752;DHT22;41095;53.090;6.692;2022-08-21T14:16:27;25.70;86.10
53752;DHT22;41095;53.090;6.692;2022-08-21T14:19:11;25.60;85.10
53752;DHT22;41095;53.090;6.692;2022-08-21T14:21:41;25.60;84.80
53752;DHT22;41095;53.090;6.692;2022-08-21T14:24:24;25.60;86.80
53752;DHT22;41095;53.090;6.692;2022-08-21T14:26:56;25.70;86.30
53752;DHT22;41095;53.090;6.692;2022-08-21T14:29:26;25.80;86.20
53752;DHT22;41095;53.090;6.692;2022-08-21T14:31:58;26.00;86.30
53752;DHT22;41095;53.090;6.692;2022-08-21T14:34:26;26.10;84.40
53752;DHT22;41095;53.090;6.692;2022-08-21T14:36:55;26.00;85.90
53752;DHT22;41095;53.090;6.692;2022-08-21T14:39:21;26.00;85.60
53752;DHT22;41095;53.090;6.692;2022-08-21T14:41:47;26.00;84.80
53752;DHT22;41095;53.090;6.692;2022-08-21T14:44:15;25.90;85.00
53752;DHT22;41095;53.090;6.692;2022-08-21T14:46:42;25.80;84.00
53752;DHT22;41095;53.090;6.692;2022-08-21T14:49:07;25.60;84.20
53752;DHT22;41095;53.090;6.692;2022-08-21T14:51:33;25.50;85.60
53752;DHT22;41095;53.090;6.692;2022-08-21T14:53:59;25.60;85.70
53752;DHT22;41095;53.090;6.692;2022-08-21T14:56:25;25.70;85.70
53752;DHT22;41095;53.090;6.692;2022-08-21T14:58:52;25.70;84.50
53752;DHT22;41095;53.090;6.692;2022-08-21T15:01:20;25.70;84.40
53752;DHT22;41095;53.090;6.692;2022-08-21T15:03:47;25.80;84.40
53752;DHT22;41095;53.090;6.692;2022-08-21T15:06:14;25.80;83.80
53752;DHT22;41095;53.090;6.692;2022-08-21T15:08:41;25.70;83.80
53752;DHT22;41095;53.090;6.692;2022-08-21T15:11:09;25.50;83.90
53752;DHT22;41095;53.090;6.692;2022-08-21T15:13:36;25.70;84.60
53752;DHT22;41095;53.090;6.692;2022-08-21T15:16:03;25.70;83.90
53752;DHT22;41095;53.090;6.692;2022-08-21T15:18:31;25.80;84.40
53752;DHT22;41095;53.090;6.692;2022-08-21T15:20:57;25.70;84.40
53752;DHT22;41095;53.090;6.692;2022-08-21T15:23:23;25.60;84.70
53752;DHT22;41095;53.090;6.692;2022-08-21T15:25:49;25.40;84.40
53752;DHT22;41095;53.090;6.692;2022-08-21T15:28:17;25.20;85.10
53752;DHT22;41095;53.090;6.692;2022-08-21T15:30:44;25.00;85.70
53752;DHT22;41095;53.090;6.692;2022-08-21T15:33:11;24.80;85.70
53752;DHT22;41095;53.090;6.692;2022-08-21T15:35:37;25.00;86.50
53752;DHT22;41095;53.090;6.692;2022-08-21T15:38:02;25.10;86.50
53752;DHT22;41095;53.090;6.692;2022-08-21T15:40:29;25.30;86.30
53752;DHT22;41095;53.090;6.692;2022-08-21T15:42:59;25.30;85.00
53752;DHT22;41095;53.090;6.692;2022-08-21T15:45:26;25.20;85.10
53752;DHT22;41095;53.090;6.692;2022-08-21T15:47:52;25.10;84.70
53752;DHT22;41095;53.090;6.692;2022-08-21T15:50:19;24.90;84.30
53752;DHT22;41095;53.090;6.692;2022-08-21T15:52:45;24.80;84.70
53752;DHT22;41095;53.090;6.692;2022-08-21T15:55:11;24.60;84.20
53752;DHT22;41095;53.090;6.692;2022-08-21T15:57:38;24.40;85.10
53752;DHT22;41095;53.090;6.692;2022-08-21T16:00:17;24.40;86.10
53752;DHT22;41095;53.090;6.692;2022-08-21T16:02:47;24.30;85.70
53752;DHT22;41095;53.090;6.692;2022-08-21T16:05:14;24.00;89.00
53752;DHT22;41095;53.090;6.692;2022-08-21T16:07:43;23.70;90.20
53752;DHT22;41095;53.090;6.692;2022-08-21T16:10:09;23.60;90.80
53752;DHT22;41095;53.090;6.692;2022-08-21T16:12:38;23.50;91.30
53752;DHT22;41095;53.090;6.692;2022-08-21T16:15:07;23.30;91.60
53752;DHT22;41095;53.090;6.692;2022-08-21T16:17:35;23.30;92.10
53752;DHT22;41095;53.090;6.692;2022-08-21T16:20:08;23.20;92.40
53752;DHT22;41095;53.090;6.692;2022-08-21T16:22:35;23.00;93.40
53752;DHT22;41095;53.090;6.692;2022-08-21T16:25:01;23.00;93.30
53752;DHT22;41095;53.090;6.692;2022-08-21T16:27:26;22.90;93.60
53752;DHT22;41095;53.090;6.692;2022-08-21T16:29:52;22.80;94.00
53752;DHT22;41095;53.090;6.692;2022-08-21T16:32:18;22.80;94.50
53752;DHT22;41095;53.090;6.692;2022-08-21T16:34:46;22.80;94.50
53752;DHT22;41095;53.090;6.692;2022-08-21T16:37:17;22.70;95.00
53752;DHT22;41095;53.090;6.692;2022-08-21T16:39:43;22.50;94.70
53752;DHT22;41095;53.090;6.692;2022-08-21T16:42:14;22.60;95.10
53752;DHT22;41095;53.090;6.692;2022-08-21T16:44:42;22.50;95.40
53752;DHT22;41095;53.090;6.692;2022-08-21T16:47:08;22.50;95.40
53752;DHT22;41095;53.090;6.692;2022-08-21T16:49:34;22.40;95.40
53752;DHT22;41095;53.090;6.692;2022-08-21T16:52:00;22.40;95.60
53752;DHT22;41095;53.090;6.692;2022-08-21T16:54:26;22.40;95.70
53752;DHT22;41095;53.090;6.692;2022-08-21T16:56:52;22.40;95.90
53752;DHT22;41095;53.090;6.692;2022-08-21T16:59:18;22.20;96.70
53752;DHT22;41095;53.090;6.692;2022-08-21T17:01:44;22.20;96.30
53752;DHT22;41095;53.090;6.692;2022-08-21T17:04:10;22.20;96.50
53752;DHT22;41095;53.090;6.692;2022-08-21T17:06:35;22.10;96.80